Time;durP1;ratioP1;P1;durP2;ratioP2;P2;SDS_P1;SDS_P2;PMS_P1;PMS_P2;Temp;Humidity;BMP_temperature;BMP_pressure;BME280_temperature;BME280_humidity;BME280_pressure;Samples;Min_cycle;Max_cycle;Signal;HPM_P1;HPM_P2
2022/06/19 00:01:24;;;;;;;0.47;0.30;;;18.10;99.90;18.00;100780.00;;;;5054547;28;20527;-76
2022/06/19 00:04:07;;;;;;;1.57;1.47;;;18.10;99.90;17.80;100774.00;;;;5054522;28;20662;-76
2022/06/19 00:06:36;;;;;;;1.40;0.60;;;18.00;99.90;17.50;100737.00;;;;5054688;28;20194;-76
2022/06/19 00:09:20;;;;;;;0.40;0.40;;;17.80;99.90;17.50;100750.00;;;;5054242;28;20176;-76
2022/06/19 00:12:04;;;;;;;1.00;0.43;;;17.80;99.90;17.50;100738.00;;;;5054504;28;20236;-76
2022/06/19 00:14:34;;;;;;;0.53;0.53;;;17.70;99.90;17.50;100737.00;;;;5054339;28;20180;-76
2022/06/19 00:17:23;;;;;;;0.93;0.50;;;17.80;99.90;17.80;100709.00;;;;5054345;28;20646;-76
2022/06/19 00:20:11;;;;;;;0.40;0.40;;;17.90;99.90;17.60;100716.00;;;;5054419;28;20180;-76
2022/06/19 00:22:55;;;;;;;4.13;0.60;;;17.80;99.90;17.60;100715.00;;;;5039843;28;20275;-76
2022/06/19 00:25:39;;;;;;;5.53;1.10;;;17.80;99.90;17.60;100711.00;;;;5054281;28;20187;-76
2022/06/19 00:28:26;;;;;;;0.20;0.20;;;17.70;99.90;18.00;100818.00;;;;5054206;28;20657;-76
2022/06/19 00:31:00;;;;;;;3.70;2.00;;;17.80;99.90;18.20;100944.00;;;;5053951;28;20181;-77
2022/06/19 00:33:34;;;;;;;0.20;0.20;;;18.00;99.90;18.30;100941.00;;;;5037566;28;20184;-77
2022/06/19 00:36:20;;;;;;;0.70;0.70;;;18.20;99.90;17.90;100882.00;;;;5053683;28;20184;-76
2022/06/19 00:39:04;;;;;;;0.40;0.40;;;18.10;99.90;17.80;100938.00;;;;5054153;28;20199;-76
2022/06/19 00:41:42;;;;;;;2.00;1.27;;;18.00;99.90;17.60;100956.00;;;;5054019;28;20543;-77
2022/06/19 00:44:31;;;;;;;0.63;0.40;;;17.90;99.90;17.60;100878.00;;;;5054513;28;20207;-76
2022/06/19 00:47:07;;;;;;;1.10;0.80;;;17.80;99.90;17.50;100906.00;;;;5054377;28;20188;-76
2022/06/19 00:49:59;;;;;;;3.93;0.83;;;17.70;99.90;17.40;100914.00;;;;5070043;28;20674;-76
2022/06/19 00:52:43;;;;;;;2.60;0.50;;;17.70;99.90;17.40;100864.00;;;;5053302;28;20240;-76
2022/06/19 00:55:21;;;;;;;1.13;1.10;;;17.60;99.90;17.30;100886.00;;;;5052607;28;20188;-76
2022/06/19 00:58:05;;;;;;;1.23;0.40;;;17.60;99.90;17.80;100900.00;;;;5053456;28;20172;-76
2022/06/19 01:00:59;;;;;;;1.33;0.53;;;17.70;99.90;17.80;100904.00;;;;5053625;28;20214;-76
2022/06/19 01:04:20;;;;;;;0.47;0.30;;;17.70;99.90;17.70;100917.00;;;;5053424;28;20177;-77
2022/06/19 01:06:54;;;;;;;2.07;0.30;;;17.70;99.90;17.40;100895.00;;;;5024529;28;20196;-76
2022/06/19 01:09:44;;;;;;;8.00;1.37;;;17.60;99.90;17.80;100941.00;;;;5053605;28;20272;-76
2022/06/19 01:12:13;;;;;;;0.80;0.80;;;17.70;99.90;17.50;100931.00;;;;5053064;28;20220;-76
2022/06/19 01:15:02;;;;;;;0.33;0.33;;;17.60;99.90;17.10;100937.00;;;;5053012;28;20196;-76
2022/06/19 01:17:36;;;;;;;0.20;0.20;;;17.40;99.90;16.90;100897.00;;;;5053115;28;20222;-76
2022/06/19 01:20:12;;;;;;;0.47;0.47;;;17.20;99.90;17.00;100906.00;;;;5052788;28;20192;-76
2022/06/19 01:23:05;;;;;;;0.40;0.40;;;17.10;99.90;16.80;100923.00;;;;5052957;28;20229;-76
2022/06/19 01:25:51;;;;;;;0.20;0.20;;;17.00;99.90;17.00;100941.00;;;;5054067;28;20269;-76
2022/06/19 01:28:46;;;;;;;0.50;0.50;;;17.10;99.90;17.00;100945.00;;;;5053242;28;20222;-76
2022/06/19 01:31:27;;;;;;;3.10;0.80;;;17.20;99.90;17.10;100974.00;;;;5052907;28;20207;-76
2022/06/19 01:34:27;;;;;;;0.63;0.63;;;17.20;99.90;17.10;100962.00;;;;5053043;28;20186;-76
2022/06/19 01:37:10;;;;;;;0.57;0.30;;;17.10;99.90;17.40;100973.00;;;;5052784;28;20642;-76
2022/06/19 01:40:29;;;;;;;0.20;0.20;;;17.30;99.90;17.50;100954.00;;;;5069371;28;20638;-76
2022/06/19 01:43:14;;;;;;;9.00;0.93;;;17.40;99.90;17.30;100980.00;;;;5034524;28;20210;-76
2022/06/19 01:45:54;;;;;;;5.20;0.33;;;17.30;99.90;17.20;101019.00;;;;5052485;28;20588;-76
2022/06/19 01:48:38;;;;;;;0.63;0.30;;;17.30;99.90;17.40;101006.00;;;;5053016;28;20561;-76
2022/06/19 01:51:21;;;;;;;5.07;1.90;;;17.40;99.90;17.10;100948.00;;;;5052374;28;20186;-76
2022/06/19 01:54:06;;;;;;;0.20;0.20;;;17.30;99.90;17.10;100982.00;;;;5052558;28;20214;-76
2022/06/19 01:56:53;;;;;;;1.80;0.50;;;17.30;99.90;17.30;101026.00;;;;5052461;28;20197;-76
2022/06/19 01:59:43;;;;;;;0.20;0.20;;;17.30;99.90;17.50;101027.00;;;;5053991;28;20263;-76
2022/06/19 02:02:29;;;;;;;4.13;1.23;;;17.30;99.90;17.70;100999.00;;;;5052259;28;20178;-77
2022/06/19 02:05:15;;;;;;;0.67;0.67;;;17.50;99.90;17.00;100984.00;;;;5052291;28;20189;-76
2022/06/19 02:07:58;;;;;;;0.20;0.20;;;17.30;99.90;16.90;100928.00;;;;5051897;28;20183;-76
2022/06/19 02:10:50;;;;;;;3.57;0.60;;;17.20;99.90;16.80;100960.00;;;;5052177;28;20182;-77
2022/06/19 02:13:35;;;;;;;0.20;0.20;;;17.10;99.90;16.30;100925.00;;;;5052277;28;20215;-76
2022/06/19 02:16:27;;;;;;;3.10;0.63;;;16.90;99.90;16.50;100907.00;;;;5052464;28;20290;-77
2022/06/19 02:18:54;;;;;;;11.77;0.57;;;16.80;99.90;16.40;100909.00;;;;5052452;28;20161;-76
2022/06/19 02:21:48;;;;;;;0.73;0.57;;;16.70;99.90;16.20;100868.00;;;;5052060;28;20186;-77
2022/06/19 02:24:39;;;;;;;0.67;0.60;;;16.60;99.90;16.30;100866.00;;;;5052160;28;20246;-76
2022/06/19 02:27:26;;;;;;;1.60;1.60;;;16.50;99.90;16.10;100889.00;;;;5052080;28;20186;-76
2022/06/19 02:30:13;;;;;;;0.70;0.60;;;16.40;99.90;16.10;100880.00;;;;5051789;28;20210;-76
2022/06/19 02:32:57;;;;;;;0.37;0.37;;;16.40;99.90;16.20;100857.00;;;;5051603;28;20205;-77
2022/06/19 02:35:41;;;;;;;2.57;0.70;;;16.40;99.90;15.90;100839.00;;;;5051952;28;20751;-76
2022/06/19 02:38:25;;;;;;;0.20;0.20;;;16.20;99.90;15.80;100785.00;;;;5052374;28;20284;-76
2022/06/19 02:41:04;;;;;;;0.37;0.37;;;16.10;99.90;15.70;100821.00;;;;5052087;28;20702;-77
2022/06/19 02:43:48;;;;;;;0.63;0.50;;;16.10;99.90;15.90;100834.00;;;;5051903;28;20664;-77
2022/06/19 02:46:31;;;;;;;4.47;0.70;;;16.10;99.90;16.00;100867.00;;;;5051898;28;20186;-76
2022/06/19 02:48:57;;;;;;;0.30;0.20;;;16.20;99.90;16.20;100900.00;;;;5051932;28;20185;-77
2022/06/19 02:51:41;;;;;;;0.40;0.40;;;16.20;99.90;16.30;100923.00;;;;5051789;28;20553;-77
2022/06/19 02:54:24;;;;;;;1.47;0.67;;;16.20;99.90;16.50;100950.00;;;;5051816;28;20327;-76
2022/06/19 02:57:12;;;;;;;7.33;0.43;;;16.40;99.90;16.90;101073.00;;;;5051304;28;20225;-77
2022/06/19 02:59:48;;;;;;;0.30;0.30;;;16.60;99.90;17.00;101106.00;;;;5051933;28;20175;-77
2022/06/19 03:02:32;;;;;;;2.23;0.30;;;16.70;99.90;16.60;101033.00;;;;5051460;28;20193;-77
2022/06/19 03:05:07;;;;;;;0.20;0.20;;;16.60;99.90;16.30;100907.00;;;;5051494;28;20194;-77
2022/06/19 03:07:51;;;;;;;3.23;1.13;;;16.40;99.90;16.20;100908.00;;;;5051508;28;20186;-77
2022/06/19 03:10:37;;;;;;;0.77;0.77;;;16.20;99.90;15.80;100876.00;;;;5052005;28;20166;-76
2022/06/19 03:13:07;;;;;;;7.07;1.17;;;16.10;99.90;15.90;100844.00;;;;5051752;28;20202;-76
2022/06/19 03:16:02;;;;;;;3.00;0.73;;;16.00;99.90;16.20;100862.00;;;;5051257;28;20187;-77
2022/06/19 03:18:45;;;;;;;0.40;0.40;;;16.10;99.90;16.00;100831.00;;;;5052903;28;20174;-77
2022/06/19 03:21:29;;;;;;;2.47;0.63;;;16.10;99.90;15.90;100864.00;;;;5055862;28;20187;-76
2022/06/19 03:24:15;;;;;;;0.60;0.60;;;16.10;99.90;16.20;100879.00;;;;5055082;28;20174;-77
2022/06/19 03:26:58;;;;;;;2.13;0.93;;;16.10;99.90;16.40;100878.00;;;;5055620;28;20617;-76
2022/06/19 03:29:42;;;;;;;0.20;0.20;;;16.20;99.90;16.10;100835.00;;;;5036729;28;20201;-76
2022/06/19 03:32:23;;;;;;;0.30;0.30;;;16.10;99.90;16.50;100856.00;;;;5034688;28;20216;-77
2022/06/19 03:34:53;;;;;;;5.10;0.83;;;16.20;99.90;16.50;100857.00;;;;5035538;28;20192;-77
2022/06/19 03:37:22;;;;;;;1.70;0.83;;;16.30;99.90;16.40;100852.00;;;;5035226;28;20221;-76
2022/06/19 03:40:06;;;;;;;0.73;0.57;;;16.20;99.90;16.30;100843.00;;;;5035172;28;20187;-76
2022/06/19 03:42:35;;;;;;;0.10;0.10;;;16.20;99.90;16.70;100852.00;;;;5035307;28;20722;-78
2022/06/19 03:45:18;;;;;;;3.47;0.40;;;16.30;99.90;16.70;100856.00;;;;5035183;28;20273;-77
2022/06/19 03:48:02;;;;;;;0.40;0.40;;;16.40;99.90;16.60;100783.00;;;;5035028;28;20189;-76
2022/06/19 03:50:51;;;;;;;0.30;0.30;;;16.30;99.90;16.80;100814.00;;;;5035079;28;20654;-77
2022/06/19 03:53:36;;;;;;;1.40;0.53;;;16.30;99.90;16.30;100818.00;;;;5035105;28;20289;-77
2022/06/19 03:56:27;;;;;;;2.93;1.00;;;16.10;99.90;16.30;100803.00;;;;5035117;28;20533;-76
2022/06/19 03:58:56;;;;;;;0.20;0.20;;;16.10;99.90;16.40;100798.00;;;;5034894;28;20205;-76
2022/06/19 04:01:33;;;;;;;0.20;0.20;;;16.10;99.90;16.80;100789.00;;;;5034340;28;20614;-76
2022/06/19 04:04:17;;;;;;;0.50;0.50;;;16.20;99.90;16.80;100776.00;;;;5034575;28;20273;-76
2022/06/19 04:06:50;;;;;;;0.30;0.30;;;16.30;99.90;16.60;100779.00;;;;5034523;28;20187;-77
2022/06/19 04:09:34;;;;;;;0.20;0.20;;;16.30;99.90;16.70;100807.00;;;;5034779;28;20258;-76
2022/06/19 04:12:18;;;;;;;0.43;0.20;;;16.30;99.90;16.80;100803.00;;;;5034814;28;20202;-77
2022/06/19 04:15:02;;;;;;;0.30;0.30;;;16.40;99.90;16.70;100816.00;;;;5034352;28;20194;-77
2022/06/19 04:17:46;;;;;;;3.87;0.83;;;16.40;99.90;16.30;100874.00;;;;5034391;28;20606;-77
2022/06/19 04:20:29;;;;;;;1.20;0.70;;;16.20;99.90;16.40;100901.00;;;;5034376;28;20199;-76
2022/06/19 04:23:13;;;;;;;0.20;0.20;;;16.30;99.90;16.70;100904.00;;;;5034547;28;20189;-77
2022/06/19 04:26:00;;;;;;;0.10;0.10;;;16.40;99.90;16.80;100921.00;;;;5034144;28;20175;-77
2022/06/19 04:28:28;;;;;;;0.27;0.27;;;16.50;99.90;16.80;100922.00;;;;5033441;28;20199;-77
2022/06/19 04:31:14;;;;;;;0.10;0.10;;;16.50;99.90;16.90;100927.00;;;;5033855;28;20192;-77
2022/06/19 04:33:58;;;;;;;0.10;0.10;;;16.60;99.90;17.60;100967.00;;;;5034513;28;20239;-77
2022/06/19 04:36:42;;;;;;;0.10;0.10;;;16.90;99.90;17.60;100988.00;;;;5033870;28;20255;-77
2022/06/19 04:39:10;;;;;;;0.10;0.10;;;17.10;99.90;17.50;100976.00;;;;5034403;28;20259;-77
2022/06/19 04:41:44;;;;;;;0.10;0.10;;;17.10;99.90;17.90;100980.00;;;;5033955;28;20254;-78
2022/06/19 04:44:28;;;;;;;0.10;0.10;;;17.20;99.90;19.00;101012.00;;;;5033597;28;20182;-77
2022/06/19 04:47:01;;;;;;;0.60;0.27;;;17.70;99.90;18.10;100982.00;;;;5033666;28;20182;-77
2022/06/19 04:49:48;;;;;;;5.10;0.43;;;17.90;99.90;17.20;100913.00;;;;5033963;28;20192;-77
2022/06/19 04:52:31;;;;;;;0.10;0.10;;;17.40;99.90;17.00;100847.00;;;;5033734;28;20235;-76
2022/06/19 04:55:17;;;;;;;0.10;0.10;;;17.00;99.90;17.10;100865.00;;;;5034041;28;20183;-77
2022/06/19 04:57:50;;;;;;;0.40;0.40;;;16.90;99.90;17.60;100868.00;;;;5033393;28;20191;-77
2022/06/19 05:00:33;;;;;;;0.10;0.10;;;17.10;99.90;18.10;100957.00;;;;5033700;28;20187;-77
2022/06/19 05:03:19;;;;;;;0.10;0.10;;;17.40;99.90;18.10;100951.00;;;;5033966;28;20203;-77
2022/06/19 05:06:05;;;;;;;5.50;1.30;;;17.70;99.90;17.00;100849.00;;;;5032902;28;20689;-77
2022/06/19 05:08:57;;;;;;;1.90;0.20;;;17.10;99.90;17.20;100901.00;;;;5033465;28;20177;-76
2022/06/19 05:11:41;;;;;;;0.20;0.20;;;17.10;99.90;17.70;100955.00;;;;5033601;28;20675;-77
2022/06/19 05:14:07;;;;;;;0.10;0.10;;;17.10;99.90;18.10;100960.00;;;;5033211;28;20187;-77
2022/06/19 05:16:51;;;;;;;0.20;0.20;;;17.30;99.90;18.10;101044.00;;;;5033489;28;20197;-77
2022/06/19 05:19:35;;;;;;;0.20;0.20;;;17.60;99.90;18.60;101033.00;;;;5033282;28;20653;-77
2022/06/19 05:22:19;;;;;;;0.33;0.33;;;17.90;99.90;19.30;101112.00;;;;5033753;28;20211;-77
2022/06/19 05:25:08;;;;;;;0.10;0.10;;;18.20;99.90;19.10;101151.00;;;;5033025;28;20265;-77
2022/06/19 05:27:57;;;;;;;0.20;0.20;;;18.20;99.90;19.10;101190.00;;;;5033456;28;20671;-77
2022/06/19 05:30:46;;;;;;;0.20;0.20;;;18.30;99.90;19.40;101198.00;;;;5032921;28;20311;-77
2022/06/19 05:33:32;;;;;;;0.10;0.10;;;18.50;99.90;19.30;101181.00;;;;5033084;28;20693;-77
2022/06/19 05:36:16;;;;;;;0.10;0.10;;;18.40;99.90;18.90;101186.00;;;;5032804;28;20186;-77
2022/06/19 05:39:00;;;;;;;0.10;0.10;;;18.30;99.90;19.10;101181.00;;;;5033090;28;20205;-77
2022/06/19 05:41:43;;;;;;;0.20;0.20;;;18.30;99.90;19.10;101216.00;;;;5032107;28;20227;-77
2022/06/19 05:44:15;;;;;;;0.10;0.10;;;18.40;99.90;19.50;101203.00;;;;5033283;28;20217;-77
2022/06/19 05:46:44;;;;;;;0.10;0.10;;;18.50;99.90;19.20;101231.00;;;;5032660;28;20191;-78
2022/06/19 05:49:32;;;;;;;1.70;1.13;;;18.40;99.90;18.90;101259.00;;;;5032614;28;20294;-77
2022/06/19 05:52:21;;;;;;;0.30;0.30;;;18.30;99.90;17.10;101171.00;;;;5032651;28;20220;-77
2022/06/19 05:55:22;;;;;;;0.30;0.30;;;17.40;99.90;17.10;101156.00;;;;5032652;28;20185;-76
2022/06/19 05:57:58;;;;;;;0.20;0.20;;;17.20;99.90;17.40;101154.00;;;;5032235;28;20188;-77
2022/06/19 06:00:41;;;;;;;2.93;1.00;;;17.10;99.90;17.10;101184.00;;;;5032772;28;20333;-74
2022/06/19 06:03:28;;;;;;;2.27;2.10;;;17.00;99.90;17.00;101166.00;;;;5032730;28;20209;-75
2022/06/19 06:06:14;;;;;;;0.97;0.97;;;16.80;99.90;16.30;101172.00;;;;5032494;28;20280;-76
2022/06/19 06:08:58;;;;;;;1.13;1.13;;;16.40;99.90;16.10;101224.00;;;;5032576;28;20196;-77
2022/06/19 06:11:42;;;;;;;0.97;0.60;;;16.20;99.90;16.00;101230.00;;;;5032005;28;20688;-78
2022/06/19 06:14:25;;;;;;;0.87;0.80;;;16.00;99.90;15.80;101182.00;;;;5032270;28;20179;-79
2022/06/19 06:16:57;;;;;;;0.63;0.63;;;15.90;99.90;15.90;101245.00;;;;5031929;28;20190;-78
2022/06/19 06:19:40;;;;;;;0.87;0.87;;;15.80;99.90;15.70;101204.00;;;;5032533;28;20192;-78
2022/06/19 06:22:24;;;;;;;0.40;0.40;;;15.70;99.90;16.20;101223.00;;;;5032501;28;20197;-78
2022/06/19 06:25:10;;;;;;;0.40;0.40;;;15.90;99.90;16.30;101205.00;;;;5032144;28;20191;-77
2022/06/19 06:27:54;;;;;;;0.83;0.57;;;16.00;99.90;15.70;101185.00;;;;5032442;28;20193;-78
2022/06/19 06:30:40;;;;;;;0.80;0.80;;;15.90;99.90;16.20;101176.00;;;;5032161;28;20181;-77
2022/06/19 06:33:25;;;;;;;0.50;0.50;;;15.90;99.90;15.60;101104.00;;;;5031769;28;20210;-77
2022/06/19 06:36:12;;;;;;;0.50;0.50;;;15.80;99.90;15.80;101109.00;;;;5032374;28;20201;-75
2022/06/19 06:38:55;;;;;;;3.53;3.40;;;15.70;99.90;14.80;101036.00;;;;5031695;28;20724;-77
2022/06/19 06:41:44;;;;;;;0.80;0.80;;;15.20;99.90;14.30;101004.00;;;;5032133;28;20180;-76
2022/06/19 06:44:33;;;;;;;0.50;0.50;;;14.80;99.90;14.10;100946.00;;;;5032177;28;20179;-74
2022/06/19 06:47:17;;;;;;;0.93;0.93;;;14.50;99.90;14.10;100909.00;;;;5031650;28;20198;-74
2022/06/19 06:50:00;;;;;;;2.30;1.20;;;14.40;99.90;14.10;100874.00;;;;5032088;28;20185;-74
2022/06/19 06:52:44;;;;;;;1.13;1.03;;;14.30;99.90;13.70;100860.00;;;;5032072;28;20279;-74
2022/06/19 06:55:31;;;;;;;0.90;0.90;;;14.10;99.90;14.20;100884.00;;;;5035638;28;20180;-76
2022/06/19 06:58:14;;;;;;;0.90;0.90;;;14.20;99.90;14.40;100895.00;;;;5035440;28;20192;-75
2022/06/19 07:01:08;;;;;;;1.30;1.27;;;14.30;99.90;14.20;100876.00;;;;5036219;28;20185;-76
2022/06/19 07:03:56;;;;;;;1.40;1.30;;;14.40;99.90;14.20;100905.00;;;;5036018;28;20193;-78
2022/06/19 07:06:40;;;;;;;3.60;1.40;;;14.40;99.90;14.30;100933.00;;;;5035669;28;20184;-78
2022/06/19 07:09:25;;;;;;;11.43;1.50;;;14.50;99.90;14.80;101008.00;;;;5035573;28;20169;-78
2022/06/19 07:12:10;;;;;;;0.80;0.80;;;14.70;99.90;15.20;101088.00;;;;5035879;28;20201;-78
2022/06/19 07:14:47;;;;;;;0.80;0.80;;;14.90;99.90;15.70;101137.00;;;;5036089;28;20233;-77
2022/06/19 07:17:30;;;;;;;0.93;0.93;;;15.20;99.90;15.40;101155.00;;;;5035664;28;20651;-77
2022/06/19 07:20:14;;;;;;;0.90;0.90;;;15.30;99.90;15.90;101095.00;;;;5035526;28;20194;-77
2022/06/19 07:22:57;;;;;;;0.90;0.90;;;15.50;99.90;15.70;101095.00;;;;5035490;28;20193;-78
2022/06/19 07:25:32;;;;;;;0.80;0.80;;;15.50;99.90;15.00;101051.00;;;;5035558;28;20217;-77
2022/06/19 07:28:18;;;;;;;1.20;1.20;;;15.30;99.90;15.10;101084.00;;;;5035548;28;20277;-77
2022/06/19 07:31:02;;;;;;;0.70;0.70;;;15.20;99.90;15.60;101139.00;;;;5035711;28;20182;-77
2022/06/19 07:33:45;;;;;;;0.70;0.70;;;15.40;99.90;16.20;101164.00;;;;5035172;28;20284;-77
2022/06/19 07:36:55;;;;;;;0.80;0.80;;;15.70;99.90;15.90;101150.00;;;;5034827;28;20186;-77
2022/06/19 07:39:43;;;;;;;0.80;0.80;;;15.80;99.90;16.20;101127.00;;;;5035262;28;20184;-77
2022/06/19 07:42:09;;;;;;;0.90;0.90;;;15.90;99.90;16.50;101109.00;;;;5034982;28;20641;-77
2022/06/19 07:44:58;;;;;;;0.77;0.77;;;16.00;99.90;16.30;101100.00;;;;5034996;28;20190;-77
2022/06/19 07:50:48;;;;;;;0.50;0.50;;;15.80;99.90;15.80;101049.00;;;;5034851;28;20760;-77
2022/06/19 07:53:31;;;;;;;1.03;0.90;;;15.70;99.90;15.60;101026.00;;;;5034445;28;20755;-77
2022/06/19 07:56:15;;;;;;;1.20;1.20;;;15.80;99.90;15.20;101013.00;;;;5035014;28;20305;-77
2022/06/19 07:59:02;;;;;;;0.60;0.60;;;15.70;99.90;15.40;100983.00;;;;5034616;28;20186;-77
2022/06/19 08:01:45;;;;;;;0.93;0.83;;;15.60;99.90;15.30;100980.00;;;;5035004;28;20179;-76
2022/06/19 08:04:32;;;;;;;0.40;0.40;;;15.50;99.90;15.50;100989.00;;;;5034306;28;20630;-77
2022/06/19 08:07:04;;;;;;;0.87;0.87;;;15.70;99.90;16.00;100938.00;;;;5034600;28;20190;-77
2022/06/19 08:09:47;;;;;;;0.80;0.80;;;15.80;99.90;16.00;100968.00;;;;5034828;28;20220;-77
2022/06/19 08:12:36;;;;;;;0.40;0.40;;;16.00;99.90;16.20;100971.00;;;;5034551;28;20211;-77
2022/06/19 08:15:22;;;;;;;0.90;0.90;;;16.10;99.90;16.00;100955.00;;;;5034199;28;20187;-78
2022/06/19 08:18:06;;;;;;;3.50;0.83;;;16.30;99.90;16.50;100928.00;;;;5034644;28;20657;-76
2022/06/19 08:20:50;;;;;;;0.30;0.30;;;16.50;99.90;17.30;100933.00;;;;5034175;28;20625;-77
2022/06/19 08:23:34;;;;;;;10.63;3.63;;;17.00;99.90;18.10;100939.00;;;;5034565;28;20205;-77
2022/06/19 08:26:17;;;;;;;5.50;0.40;;;18.00;99.90;18.10;100924.00;;;;5033939;28;20200;-77
2022/06/19 08:29:00;;;;;;;0.57;0.40;;;18.30;99.90;18.60;100945.00;;;;5034326;28;20279;-76
2022/06/19 08:31:44;;;;;;;0.75;0.57;;;18.70;99.90;17.80;100941.00;;;;5033919;28;20217;-76
2022/06/19 08:34:28;;;;;;;4.18;1.30;;;18.50;99.90;17.90;100938.00;;;;5034171;28;20217;-76
2022/06/19 08:37:04;;;;;;;0.20;0.20;;;18.50;99.90;17.90;100930.00;;;;5034238;28;20201;-77
2022/06/19 08:39:47;;;;;;;2.05;0.60;;;18.30;99.90;17.90;100966.00;;;;5050499;28;20257;-76
2022/06/19 08:43:14;;;;;;;0.38;0.38;;;18.30;99.90;18.50;100994.00;;;;5033917;28;20185;-77
2022/06/19 08:46:12;;;;;;;0.85;0.73;;;18.60;99.90;17.70;100971.00;;;;5033916;28;20201;-77
2022/06/19 09:08:01;;;;;;;0.20;0.20;;;17.30;99.90;17.60;101008.00;;;;5034922;28;20220;-80
2022/06/19 09:11:06;;;;;;;1.13;1.03;;;17.60;99.90;17.50;100961.00;;;;5034603;28;20237;-79
2022/06/19 09:14:18;;;;;;;0.63;0.63;;;17.80;99.90;17.30;100984.00;;;;5016901;28;20182;-79
2022/06/19 09:17:49;;;;;;;1.10;0.90;;;17.70;99.90;17.10;100975.00;;;;5032289;28;20262;-79
2022/06/19 09:20:44;;;;;;;7.13;1.50;;;17.70;99.90;16.90;100969.00;;;;5049097;28;20205;-79
2022/06/19 09:23:38;;;;;;;0.50;0.50;;;17.50;99.90;17.00;100938.00;;;;5033373;28;20210;-79
2022/06/19 09:27:26;;;;;;;;;;;;;;;;;;;;;
2022/06/19 09:35:16;;;;;;;;;;;;;;;;;;;;;
2022/06/19 09:43:15;;;;;;;1.40;1.30;;;17.60;99.90;17.50;100936.00;;;;4860961;29;20230;-79
2022/06/19 10:00:52;;;;;;;1.00;0.97;;;18.20;99.90;18.90;100837.00;;;;4992148;28;20235;-78
2022/06/19 10:03:18;;;;;;;3.10;1.75;;;18.90;99.90;18.40;100852.00;;;;4976797;28;20302;-78
2022/06/19 10:06:44;;;;;;;0.50;0.50;;;19.10;99.90;18.30;100873.00;;;;4993049;28;20282;-78
2022/06/19 10:09:25;;;;;;;5.50;0.60;;;18.70;99.90;18.30;100910.00;;;;5001168;28;20198;-79
2022/06/19 10:11:59;;;;;;;0.37;0.37;;;18.60;99.90;18.70;100928.00;;;;4992870;28;20238;-78
2022/06/19 10:14:41;;;;;;;0.40;0.40;;;18.70;99.90;18.40;100941.00;;;;4977023;28;20645;-79
2022/06/19 10:17:29;;;;;;;0.65;0.65;;;18.70;99.90;18.90;100945.00;;;;4976559;28;20215;-78
2022/06/19 10:20:17;;;;;;;0.63;0.50;;;19.10;99.90;18.70;100958.00;;;;4992838;28;20195;-78
2022/06/19 10:34:18;;;;;;;0.70;0.70;;;19.00;99.90;19.30;100943.00;;;;5070394;28;20549;-78
2022/06/19 10:37:11;;;;;;;1.48;0.68;;;19.40;99.90;19.40;100913.00;;;;5049030;28;20667;-79
2022/06/19 10:40:06;;;;;;;0.80;0.80;;;19.70;99.90;19.10;100931.00;;;;5066579;28;20192;-79
2022/06/19 10:42:54;;;;;;;0.45;0.45;;;19.80;99.90;19.90;100929.00;;;;5049656;28;20190;-79
2022/06/19 10:45:44;;;;;;;0.20;0.20;;;20.00;99.90;21.20;100950.00;;;;5065786;28;20589;-79
2022/06/19 10:48:45;;;;;;;0.45;0.45;;;20.60;99.90;20.40;100973.00;;;;5048926;28;20210;-79
2022/06/19 10:51:39;;;;;;;1.48;0.85;;;20.90;99.90;19.10;100976.00;;;;5049501;28;20579;-79
2022/06/19 10:54:17;;;;;;;0.73;0.70;;;20.30;99.90;18.80;100972.00;;;;5049375;28;20170;-79
2022/06/19 10:57:01;;;;;;;0.57;0.57;;;19.60;99.90;18.70;100969.00;;;;5065940;28;20182;-79
2022/06/19 10:59:47;;;;;;;0.30;0.30;;;19.20;99.90;19.20;100983.00;;;;5048838;28;20185;-78
2022/06/19 11:05:48;;;;;;;1.10;1.10;;;19.50;99.90;19.70;100980.00;;;;5049318;28;20311;-79
2022/06/19 11:08:35;;;;;;;3.28;0.77;;;19.80;99.90;19.20;100994.00;;;;5048527;28;20704;-79
2022/06/19 11:11:20;;;;;;;0.20;0.20;;;19.70;99.90;19.30;101016.00;;;;5048974;28;20203;-78
2022/06/19 11:14:09;;;;;;;0.38;0.38;;;19.60;99.90;19.30;101030.00;;;;5048698;28;20666;-79
2022/06/19 11:17:37;;;;;;;0.65;0.63;;;19.70;99.90;19.30;101054.00;;;;5065449;28;20224;-79
2022/06/19 11:21:14;;;;;;;0.20;0.20;;;19.50;99.90;18.70;101045.00;;;;5007227;28;20676;-79
2022/06/19 11:24:14;;;;;;;;;;;;;;;;;;;;;
2022/06/19 11:27:27;;;;;;;;;;;;;;;;;;;;;
2022/06/19 11:30:22;;;;;;;0.25;0.25;;;19.80;99.90;20.00;101067.00;;;;4973168;28;20210;-79
2022/06/19 11:33:38;;;;;;;;;;;;;;;;;;;;;
2022/06/19 11:36:48;;;;;;;;;;;;;;;;;;;;;
2022/06/19 11:39:59;;;;;;;7.23;6.13;;;20.30;99.90;21.00;101187.00;;;;4973558;28;20209;-79
2022/06/19 11:43:50;;;;;;;0.20;0.20;;;20.50;99.90;20.80;101208.00;;;;4963195;28;20228;-79
2022/06/19 11:46:58;;;;;;;0.20;0.20;;;20.40;99.90;20.30;101200.00;;;;4959757;28;20192;-79
2022/06/19 11:49:40;;;;;;;0.88;0.63;;;20.20;99.90;20.20;101213.00;;;;4939888;28;20307;-79
2022/06/19 11:53:08;;;;;;;;;;;;;;;;;;;;;
2022/06/19 11:55:50;;;;;;;0.50;0.50;;;19.80;99.90;20.40;101190.00;;;;4944318;28;20195;-79
2022/06/19 11:59:00;;;;;;;0.20;0.20;;;19.90;99.90;20.40;101182.00;;;;4943015;28;20769;-79
2022/06/19 12:02:30;;;;;;;;;;;;;;;;;;;;;
2022/06/19 12:05:43;;;;;;;0.30;0.30;;;20.00;99.90;19.80;101198.00;;;;5009482;28;20197;-79
2022/06/19 12:16:53;;;;;;;;;;;;;;;;;;;;;
2022/06/19 12:30:39;;;;;;;4.93;2.13;;;18.30;99.90;17.50;101151.00;;;;4837956;29;20257;-77
2022/06/19 12:33:31;;;;;;;2.37;2.17;;;17.60;99.90;16.90;101173.00;;;;4925789;28;20703;-78
2022/06/19 12:36:02;;;;;;;2.57;2.40;;;17.30;99.90;17.50;101216.00;;;;5027946;28;20186;-77
2022/06/19 12:38:53;;;;;;;1.07;0.70;;;17.40;99.90;18.00;101246.00;;;;4998281;28;20185;-77
2022/06/19 12:41:28;;;;;;;2.23;2.03;;;17.60;99.90;18.00;101251.00;;;;5037159;28;20294;-76
2022/06/19 12:44:08;;;;;;;2.70;2.50;;;17.80;99.90;17.50;101239.00;;;;5040575;28;20197;-77
2022/06/19 12:47:02;;;;;;;1.80;0.77;;;17.50;99.90;17.10;101273.00;;;;5033962;28;20196;-77
2022/06/19 12:49:49;;;;;;;1.13;1.13;;;17.30;99.90;17.40;101289.00;;;;5027244;28;20203;-77
2022/06/19 12:52:57;;;;;;;0.40;0.40;;;17.20;99.90;17.70;101335.00;;;;5017943;28;20220;-77
2022/06/19 12:55:52;;;;;;;1.70;1.60;;;17.20;99.90;18.00;101360.00;;;;5011574;28;20203;-77
2022/06/19 12:58:26;;;;;;;0.50;0.50;;;17.40;99.90;17.90;101387.00;;;;5012255;28;20543;-78
2022/06/19 13:01:22;;;;;;;0.80;0.80;;;17.50;99.90;18.10;101373.00;;;;5015574;28;20764;-78
2022/06/19 13:04:35;;;;;;;1.50;1.13;;;17.60;99.90;17.80;101371.00;;;;4999618;28;20750;-77
2022/06/19 13:07:36;;;;;;;10.03;2.70;;;17.50;99.90;17.50;101366.00;;;;4994199;28;20205;-77
2022/06/19 13:10:46;;;;;;;1.57;1.10;;;17.40;99.90;17.60;101363.00;;;;4989154;28;20254;-78
2022/06/19 13:13:41;;;;;;;2.13;1.93;;;17.20;99.90;17.90;101364.00;;;;5011696;28;20227;-78
2022/06/19 13:16:50;;;;;;;0.50;0.50;;;17.30;99.90;17.70;101365.00;;;;5022962;28;20663;-78
2022/06/19 13:19:52;;;;;;;1.37;1.37;;;17.30;99.90;18.10;101344.00;;;;5025340;28;20183;-70
2022/06/19 13:22:42;;;;;;;0.70;0.70;;;17.50;99.90;17.70;101330.00;;;;5029439;28;20732;-69
2022/06/19 13:25:11;;;;;;;1.13;1.03;;;17.40;99.90;17.70;101270.00;;;;5024600;28;20216;-71
2022/06/19 13:28:10;;;;;;;1.10;1.10;;;17.50;99.90;17.30;101291.00;;;;5027705;28;20203;-71
2022/06/19 13:31:07;;;;;;;0.53;0.53;;;17.20;99.90;17.80;101316.00;;;;5014374;28;20217;-71
2022/06/19 13:33:58;;;;;;;0.90;0.90;;;17.30;99.90;17.90;101305.00;;;;5013280;28;20242;-71
2022/06/19 13:36:33;;;;;;;2.63;2.53;;;17.50;99.90;18.70;101306.00;;;;5027447;28;20195;-71
2022/06/19 13:39:23;;;;;;;0.90;0.90;;;18.00;99.90;18.00;101316.00;;;;5030923;28;20229;-71
2022/06/19 13:42:09;;;;;;;1.97;1.87;;;18.00;99.90;18.70;101309.00;;;;5034145;28;20235;-68
2022/06/19 13:45:11;;;;;;;0.40;0.40;;;18.30;99.90;18.30;101279.00;;;;5049172;28;20175;-69
2022/06/19 13:48:15;;;;;;;1.57;1.57;;;18.20;99.90;18.90;101272.00;;;;5049301;28;20190;-69
2022/06/19 13:51:25;;;;;;;1.33;1.23;;;18.50;99.90;18.70;101256.00;;;;5035388;28;20189;-70